createdAt,value
2023-04-15T00:01:18.951Z,99552.91
2023-04-15T00:04:21.500Z,99556.00
2023-04-15T00:07:25.461Z,99578.25
2023-04-15T00:10:33.745Z,99577.13
2023-04-15T00:13:35.944Z,99581.16
2023-04-15T00:16:38.236Z,99577.59
2023-04-15T00:19:41.823Z,99575.66
2023-04-15T00:22:44.926Z,99575.47
2023-04-15T00:25:47.346Z,99560.00
2023-04-15T00:28:49.547Z,99557.88
2023-04-15T00:31:55.226Z,99537.44
2023-04-15T00:34:57.789Z,99568.00
2023-04-15T00:38:00.101Z,99553.06
2023-04-15T00:41:03.938Z,99556.50
2023-04-15T00:44:07.080Z,99568.81
2023-04-15T00:47:11.400Z,99551.41
2023-04-15T00:50:13.510Z,99576.94
2023-04-15T00:53:15.858Z,99564.88
2023-04-15T00:56:20.382Z,99572.56
2023-04-15T00:59:24.276Z,99564.09
2023-04-15T01:02:28.779Z,99566.34
2023-04-15T01:05:31.544Z,99536.81
2023-04-15T01:08:36.394Z,99541.31
2023-04-15T01:11:39.187Z,99539.06
2023-04-15T01:14:43.531Z,99547.66
2023-04-15T01:17:46.588Z,99547.13
2023-04-15T01:20:48.880Z,99554.66
2023-04-15T01:23:53.596Z,99543.03
2023-04-15T01:26:56.025Z,99543.59
2023-04-15T01:30:00.942Z,99549.59
2023-04-15T01:33:05.147Z,99535.50
2023-04-15T01:36:13.982Z,99563.34
2023-04-15T01:39:17.973Z,99533.41
2023-04-15T01:42:21.989Z,99551.03
2023-04-15T01:45:24.269Z,99553.41
2023-04-15T01:48:27.457Z,99562.00
2023-04-15T01:51:30.871Z,99552.78
2023-04-15T01:54:33.036Z,99542.50
2023-04-15T01:57:35.311Z,99568.53
2023-04-15T02:00:41.470Z,99549.69
2023-04-15T02:03:43.948Z,99551.03
2023-04-15T02:06:48.810Z,99544.88
2023-04-15T02:09:50.965Z,99539.56
2023-04-15T02:12:53.560Z,99543.16
2023-04-15T02:15:55.718Z,99561.75
2023-04-15T02:19:02.322Z,99560.13
2023-04-15T02:22:05.005Z,99567.41
2023-04-15T02:25:09.347Z,99546.69
2023-04-15T02:28:11.509Z,99568.34
2023-04-15T02:31:13.594Z,99568.63
2023-04-15T02:34:19.003Z,99584.00
2023-04-15T02:37:24.097Z,99564.19
2023-04-15T02:40:26.163Z,99565.53
2023-04-15T02:43:29.549Z,99586.09
2023-04-15T02:46:32.780Z,99555.75
2023-04-15T02:49:37.509Z,99559.09
2023-04-15T02:52:41.807Z,99578.56
2023-04-15T02:55:48.060Z,99555.47
2023-04-15T02:58:51.767Z,99575.75
2023-04-15T03:02:01.762Z,99567.41
2023-04-15T03:05:06.250Z,99548.88
2023-04-15T03:08:11.303Z,99576.75
2023-04-15T03:11:15.198Z,99562.47
2023-04-15T03:14:17.593Z,99561.28
2023-04-15T03:17:20.678Z,99544.94
2023-04-15T03:20:24.528Z,99546.09
2023-04-15T03:23:28.997Z,99543.09
2023-04-15T03:26:32.062Z,99536.75
2023-04-15T03:29:36.840Z,99546.97
2023-04-15T03:32:40.475Z,99566.31
2023-04-15T03:35:45.036Z,99569.97
2023-04-15T03:38:47.291Z,99553.41
2023-04-15T03:41:50.618Z,99564.78
2023-04-15T03:44:53.877Z,99550.66
2023-04-15T03:48:07.284Z,99571.38
2023-04-15T03:51:22.412Z,99553.53
2023-04-15T03:54:24.287Z,99541.56
2023-04-15T03:57:26.629Z,99546.06
2023-04-15T04:00:33.426Z,99550.44
2023-04-15T04:03:35.736Z,99531.28
2023-04-15T04:06:39.394Z,99555.69
2023-04-15T04:09:45.708Z,99551.13
2023-04-15T04:12:52.010Z,99555.97
2023-04-15T04:15:54.521Z,99536.97
2023-04-15T04:18:56.818Z,99545.44
2023-04-15T04:21:58.979Z,99549.00
2023-04-15T04:25:05.067Z,99536.47
2023-04-15T04:28:08.481Z,99568.06
2023-04-15T04:31:10.667Z,99538.38
2023-04-15T04:34:12.825Z,99559.28
2023-04-15T04:37:15.042Z,99544.69
2023-04-15T04:40:18.165Z,99541.19
2023-04-15T04:43:22.620Z,99547.97
2023-04-15T04:46:24.984Z,99531.09
2023-04-15T04:49:27.080Z,99537.94
2023-04-15T04:52:29.738Z,99552.88
2023-04-15T04:55:32.377Z,99571.84
2023-04-15T04:58:34.911Z,99554.78
2023-04-15T05:01:39.054Z,99564.63
2023-04-15T05:04:41.923Z,99554.16
2023-04-15T05:07:45.006Z,99556.94
2023-04-15T05:10:48.473Z,99562.66
2023-04-15T05:13:50.655Z,99568.78
2023-04-15T05:16:53.118Z,99570.41
2023-04-15T05:19:59.079Z,99567.69
2023-04-15T05:23:01.372Z,99578.69
2023-04-15T05:26:04.158Z,99572.63
2023-04-15T05:29:07.690Z,99563.63
2023-04-15T05:32:10.931Z,99563.72
2023-04-15T05:35:12.910Z,99575.53
2023-04-15T05:38:14.964Z,99572.09
2023-04-15T05:41:19.179Z,99569.69
2023-04-15T05:44:21.983Z,99595.19
2023-04-15T05:47:26.896Z,99582.97
2023-04-15T05:50:29.008Z,99584.66
2023-04-15T05:53:31.386Z,99582.94
2023-04-15T05:56:33.617Z,99575.53
2023-04-15T05:59:35.792Z,99575.78
2023-04-15T06:02:39.138Z,99570.41
2023-04-15T06:05:42.900Z,99580.78
2023-04-15T06:08:45.476Z,99578.94
2023-04-15T06:11:47.547Z,99587.44
2023-04-15T06:14:49.727Z,99586.22
2023-04-15T06:17:52.045Z,99588.84
2023-04-15T06:20:54.469Z,99617.19
2023-04-15T06:24:00.322Z,99601.09
2023-04-15T06:27:04.048Z,99621.16
2023-04-15T06:30:08.051Z,99616.00
2023-04-15T06:33:10.916Z,99607.91
2023-04-15T06:36:15.634Z,99613.16
2023-04-15T06:39:18.253Z,99617.84
2023-04-15T06:42:21.859Z,99599.53
2023-04-15T06:45:24.019Z,99616.19
2023-04-15T06:48:27.296Z,99619.28
2023-04-15T06:51:30.502Z,99622.59
2023-04-15T06:54:32.563Z,99621.34
2023-04-15T06:57:37.710Z,99616.72
2023-04-15T07:00:41.935Z,99618.44
2023-04-15T07:03:44.036Z,99636.38
2023-04-15T07:06:47.396Z,99623.41
2023-04-15T07:09:50.721Z,99605.47
2023-04-15T07:12:53.976Z,99632.41
2023-04-15T07:15:56.896Z,99611.78
2023-04-15T07:19:00.376Z,99641.34
2023-04-15T07:22:03.205Z,99610.41
2023-04-15T07:25:05.927Z,99627.03
2023-04-15T07:28:10.777Z,99611.03
2023-04-15T07:31:26.077Z,99628.19
2023-04-15T07:34:32.745Z,99636.63
2023-04-15T07:37:34.994Z,99624.63
2023-04-15T07:40:37.095Z,99648.50
2023-04-15T07:43:40.447Z,99626.53
2023-04-15T07:46:44.485Z,99627.31
2023-04-15T07:49:46.559Z,99620.13
2023-04-15T07:52:49.731Z,99632.03
2023-04-15T07:55:52.190Z,99627.59
2023-04-15T07:58:55.745Z,99625.34
2023-04-15T08:02:00.897Z,99623.59
2023-04-15T08:05:04.644Z,99623.91
2023-04-15T08:08:08.672Z,99639.16
2023-04-15T08:11:10.959Z,99647.63
2023-04-15T08:14:13.287Z,99625.41
2023-04-15T08:17:15.339Z,99631.59
2023-04-15T08:20:17.660Z,99635.84
2023-04-15T08:23:19.656Z,99616.09
2023-04-15T08:26:22.287Z,99623.19
2023-04-15T08:29:27.459Z,99642.28
2023-04-15T08:32:32.161Z,99636.69
2023-04-15T08:35:34.434Z,99650.88
2023-04-15T08:38:37.530Z,99641.56
2023-04-15T08:41:57.787Z,99657.84
2023-04-15T08:45:01.744Z,99640.97
2023-04-15T08:48:06.384Z,99659.41
2023-04-15T08:51:09.551Z,99668.28
2023-04-15T08:54:12.117Z,99637.03
2023-04-15T08:57:15.101Z,99645.44
2023-04-15T09:00:18.154Z,99643.84
2023-04-15T09:03:22.209Z,99664.91
2023-04-15T09:06:25.829Z,99644.94
2023-04-15T09:09:29.197Z,99637.00
2023-04-15T09:12:32.242Z,99665.72
2023-04-15T09:15:38.503Z,99650.44
2023-04-15T09:18:40.484Z,99648.13
2023-04-15T09:21:42.810Z,99666.59
2023-04-15T09:24:46.563Z,99651.44
2023-04-15T09:28:00.172Z,99673.66
2023-04-15T09:31:02.991Z,99670.56
2023-04-15T09:34:07.980Z,99656.44
2023-04-15T09:37:11.332Z,99662.97
2023-04-15T09:40:14.048Z,99659.94
2023-04-15T09:43:17.429Z,99666.59
2023-04-15T09:46:19.687Z,99649.00
2023-04-15T09:49:21.855Z,99642.94
2023-04-15T09:52:23.941Z,99664.19
2023-04-15T09:55:25.958Z,99661.13
2023-04-15T09:58:29.985Z,99670.97
2023-04-15T10:01:32.675Z,99662.75
2023-04-15T10:04:39.349Z,99668.66
2023-04-15T10:07:43.867Z,99679.13
2023-04-15T10:10:48.123Z,99659.63
2023-04-15T10:13:52.550Z,99650.19
2023-04-15T10:17:01.530Z,99652.25
2023-04-15T10:20:05.461Z,99685.34
2023-04-15T10:23:10.953Z,99684.63
2023-04-15T10:26:15.008Z,99677.00
2023-04-15T10:29:18.156Z,99691.28
2023-04-15T10:32:21.463Z,99680.84
2023-04-15T10:35:24.157Z,99680.56
2023-04-15T10:38:35.993Z,99675.63
2023-04-15T10:41:38.278Z,99693.69
2023-04-15T10:44:45.333Z,99701.56
2023-04-15T10:47:52.792Z,99675.13
2023-04-15T10:50:59.224Z,99682.41
2023-04-15T10:54:01.946Z,99718.50
2023-04-15T10:57:06.660Z,99723.34
2023-04-15T11:00:10.556Z,99724.75
2023-04-15T11:03:15.743Z,99726.28
2023-04-15T11:06:18.465Z,99729.88
2023-04-15T11:09:33.865Z,99712.19
2023-04-15T11:12:36.557Z,99728.16
2023-04-15T11:15:45.250Z,99724.72
2023-04-15T11:19:02.395Z,99713.34
2023-04-15T11:22:11.405Z,99700.56
2023-04-15T11:25:27.095Z,99703.81
2023-04-15T11:28:36.287Z,99713.75
2023-04-15T11:31:38.880Z,99703.50
2023-04-15T11:34:40.930Z,99718.06
2023-04-15T11:37:43.825Z,99717.25
2023-04-15T11:40:47.380Z,99706.38
2023-04-15T11:43:50.866Z,99696.94
2023-04-15T11:46:52.846Z,99737.28
2023-04-15T11:49:55.774Z,99726.97
2023-04-15T11:53:00.169Z,99730.25
2023-04-15T11:56:02.763Z,99703.91
2023-04-15T11:59:05.845Z,99706.94
2023-04-15T12:02:14.721Z,99722.28
2023-04-15T12:05:19.689Z,99740.13
2023-04-15T12:08:26.554Z,99711.69
2023-04-15T12:11:34.185Z,99726.03
2023-04-15T12:14:36.749Z,99710.63
2023-04-15T12:17:51.618Z,99707.53
2023-04-15T12:20:57.244Z,99721.06
2023-04-15T12:24:03.861Z,99716.31
2023-04-15T12:27:08.035Z,99722.38
2023-04-15T12:30:11.815Z,99740.59
2023-04-15T12:33:20.317Z,99716.31
2023-04-15T12:36:24.906Z,99729.69
2023-04-15T12:39:30.651Z,99720.56
2023-04-15T12:42:33.044Z,99727.44
2023-04-15T12:45:35.113Z,99742.88
2023-04-15T12:48:36.999Z,99748.19
2023-04-15T12:51:38.904Z,99727.06
2023-04-15T12:54:41.750Z,99735.19
2023-04-15T12:57:44.687Z,99746.22
2023-04-15T13:00:47.157Z,99725.56
2023-04-15T13:03:51.287Z,99751.75
2023-04-15T13:06:54.057Z,99744.97
2023-04-15T13:09:57.604Z,99736.56
2023-04-15T13:13:00.700Z,99736.56
2023-04-15T13:16:02.757Z,99741.31
2023-04-15T13:19:04.732Z,99744.13
2023-04-15T13:22:08.954Z,99734.63
2023-04-15T13:25:11.806Z,99750.53
2023-04-15T13:28:14.022Z,99762.56
2023-04-15T13:31:16.196Z,99739.56
2023-04-15T13:34:18.548Z,99763.66
2023-04-15T13:37:21.221Z,99750.50
2023-04-15T13:40:26.216Z,99749.91
2023-04-15T13:43:30.795Z,99744.66
2023-04-15T13:46:33.127Z,99751.94
2023-04-15T13:49:35.177Z,99768.13
2023-04-15T13:52:37.921Z,99757.22
2023-04-15T13:55:44.118Z,99772.56
2023-04-15T13:58:47.087Z,99768.53
2023-04-15T14:01:51.028Z,99770.34
2023-04-15T14:04:53.675Z,99751.28
2023-04-15T14:07:56.500Z,99770.91
2023-04-15T14:10:59.826Z,99750.66
2023-04-15T14:14:03.333Z,99752.31
2023-04-15T14:17:05.962Z,99757.81
2023-04-15T14:20:11.363Z,99764.03
2023-04-15T14:23:13.744Z,99776.13
2023-04-15T14:26:16.047Z,99793.28
2023-04-15T14:29:18.434Z,99792.84
2023-04-15T14:32:21.305Z,99809.22
2023-04-15T14:35:26.202Z,99788.81
2023-04-15T14:38:40.909Z,99791.00
2023-04-15T14:41:42.881Z,99785.41
2023-04-15T14:44:46.592Z,99780.75
2023-04-15T14:47:48.888Z,99781.22
2023-04-15T14:50:54.513Z,99795.56
2023-04-15T14:53:57.034Z,99787.88
2023-04-15T14:57:01.932Z,99818.88
2023-04-15T15:00:05.434Z,99798.41
2023-04-15T15:03:16.374Z,99820.44
2023-04-15T15:06:23.473Z,99780.69
2023-04-15T15:09:29.528Z,99785.56
2023-04-15T15:12:33.448Z,99810.53
2023-04-15T15:15:37.054Z,99799.97
2023-04-15T15:18:54.342Z,99797.06
2023-04-15T15:21:56.438Z,99821.25
2023-04-15T15:25:01.713Z,99811.19
2023-04-15T15:28:08.878Z,99822.31
2023-04-15T15:31:12.345Z,99822.19
2023-04-15T15:34:19.925Z,99818.22
2023-04-15T15:37:21.997Z,99852.47
2023-04-15T15:40:27.961Z,99840.25
2023-04-15T15:43:35.264Z,99840.81
2023-04-15T15:46:47.252Z,99836.47
2023-04-15T15:49:50.633Z,99863.91
2023-04-15T15:52:52.779Z,99859.56
2023-04-15T15:55:55.129Z,99853.38
2023-04-15T15:58:57.325Z,99862.00
2023-04-15T16:02:00.266Z,99877.94
2023-04-15T16:05:04.546Z,99865.44
2023-04-15T16:08:06.775Z,99892.16
2023-04-15T16:11:08.968Z,99904.09
2023-04-15T16:14:14.946Z,99860.06
2023-04-15T16:25:20.092Z,99877.81
2023-04-15T16:37:00.718Z,99877.59
2023-04-15T16:45:08.904Z,99883.44
2023-04-15T16:49:17.239Z,99917.50
2023-04-15T16:52:48.976Z,99905.59
2023-04-15T16:58:01.851Z,99926.16
2023-04-15T17:01:11.487Z,99923.38
2023-04-15T17:04:58.742Z,99920.75
2023-04-15T17:09:33.193Z,99947.56
2023-04-15T17:13:49.748Z,99945.69
2023-04-15T17:17:22.496Z,99947.84
2023-04-15T17:43:24.105Z,99961.75
2023-04-15T17:46:19.842Z,99984.78
2023-04-15T17:52:48.907Z,99989.69
2023-04-15T17:56:17.436Z,99993.44
2023-04-15T17:59:40.285Z,99984.53
2023-04-15T18:02:46.740Z,99997.28
2023-04-15T18:06:06.263Z,100011.91
2023-04-15T18:09:14.559Z,100000.28
2023-04-15T18:12:21.442Z,100016.19
2023-04-15T18:15:24.725Z,100021.03
2023-04-15T18:18:31.587Z,100018.59
2023-04-15T18:21:41.413Z,100001.44
2023-04-15T18:24:47.970Z,100021.63
2023-04-15T18:28:03.496Z,100034.00
2023-04-15T18:31:07.833Z,100046.69
2023-04-15T18:34:10.805Z,100051.16
2023-04-15T18:37:17.948Z,100051.81
2023-04-15T18:40:21.729Z,100067.22
2023-04-15T18:43:27.699Z,100066.72
2023-04-15T18:46:32.280Z,100068.25
2023-04-15T18:49:35.897Z,100082.25
2023-04-15T18:52:46.863Z,100078.44
2023-04-15T18:55:50.214Z,100090.53
2023-04-15T18:59:25.736Z,100088.31
2023-04-15T19:02:27.005Z,100081.41
2023-04-15T19:05:37.316Z,100098.09
2023-04-15T19:08:46.509Z,100097.72
2023-04-15T19:11:55.648Z,100104.63
2023-04-15T19:14:59.655Z,100092.00
2023-04-15T19:18:02.780Z,100123.66
2023-04-15T19:21:07.133Z,100131.19
2023-04-15T19:24:11.521Z,100102.09
2023-04-15T19:27:26.157Z,100121.91
2023-04-15T19:30:32.654Z,100111.16
2023-04-15T19:33:40.394Z,100132.53
2023-04-15T19:37:03.743Z,100136.25
2023-04-15T19:43:30.874Z,100127.63
2023-04-15T19:46:41.629Z,100125.63
2023-04-15T19:50:21.932Z,100110.63
2023-04-15T19:53:28.503Z,100123.22
2023-04-15T19:56:34.644Z,100118.44
2023-04-15T19:59:50.100Z,100118.06
2023-04-15T20:03:08.672Z,100124.91
2023-04-15T20:06:16.497Z,100136.84
2023-04-15T20:09:35.968Z,100169.50
2023-04-15T20:12:54.058Z,100173.59
2023-04-15T20:16:01.490Z,100158.97
2023-04-15T20:19:19.152Z,100153.31
2023-04-15T20:22:25.307Z,100136.50
2023-04-15T20:25:35.852Z,100144.81
2023-04-15T20:28:45.880Z,100137.63
2023-04-15T20:32:13.615Z,100157.41
2023-04-15T20:35:23.136Z,100164.66
2023-04-15T20:38:26.625Z,100162.25
2023-04-15T20:41:33.271Z,100170.97
2023-04-15T20:44:41.463Z,100182.00
2023-04-15T20:47:58.740Z,100180.34
2023-04-15T20:51:08.180Z,100169.78
2023-04-15T20:54:28.554Z,100153.91
2023-04-15T20:57:45.644Z,100157.94
2023-04-15T21:00:56.399Z,100176.88
2023-04-15T21:04:27.620Z,100167.72
2023-04-15T21:07:39.191Z,100184.38
2023-04-15T21:11:07.039Z,100201.19
2023-04-15T21:14:19.214Z,100208.34
2023-04-15T21:17:57.417Z,100204.78
2023-04-15T21:21:55.651Z,100173.47
2023-04-15T21:31:38.156Z,100222.41
2023-04-15T22:13:17.925Z,100210.72
2023-04-15T22:39:01.938Z,100257.56
2023-04-15T22:42:34.156Z,100217.72
2023-04-15T22:46:54.494Z,100229.47
2023-04-15T22:50:54.989Z,100247.31
2023-04-15T22:54:37.872Z,100267.56
2023-04-15T23:01:43.559Z,100262.00
2023-04-15T23:05:14.367Z,100229.50
2023-04-15T23:18:12.124Z,100227.03
2023-04-15T23:25:24.078Z,100232.91
2023-04-15T23:34:23.873Z,100261.94
2023-04-15T23:37:28.404Z,100241.19
2023-04-15T23:41:25.702Z,100251.13
2023-04-15T23:49:41.701Z,100288.34
2023-04-15T23:53:05.251Z,100261.53
2023-04-15T23:56:53.149Z,100293.16
